Time;durP1;ratioP1;P1;durP2;ratioP2;P2;SDS_P1;SDS_P2;PMS_P1;PMS_P2;Temp;Humidity;BMP_temperature;BMP_pressure;BME280_temperature;BME280_humidity;BME280_pressure;Samples;Min_cycle;Max_cycle;Signal;HPM_P1;HPM_P2
2023/06/09 00:00:27;;;;;;;9.00;5.85;;;;;;;12.35;100.00;100813.47;6194658;23;20016;-78
2023/06/09 00:02:55;;;;;;;14.52;8.55;;;;;;;12.32;100.00;100809.28;6194995;23;20134;-78
2023/06/09 00:05:21;;;;;;;14.45;8.77;;;;;;;12.31;100.00;100799.53;6195200;23;20008;-77
2023/06/09 00:07:47;;;;;;;10.07;7.93;;;;;;;12.35;100.00;100802.69;6194745;23;20042;-78
2023/06/09 00:10:14;;;;;;;12.00;7.43;;;;;;;12.31;100.00;100791.44;6194814;23;20008;-78
2023/06/09 00:12:40;;;;;;;9.02;6.82;;;;;;;12.17;100.00;100794.13;6194704;23;20018;-81
2023/06/09 00:15:09;;;;;;;11.52;7.68;;;;;;;12.14;100.00;100789.13;6194608;23;20409;-79
2023/06/09 00:17:38;;;;;;;15.02;8.25;;;;;;;12.14;100.00;100789.13;6244862;23;20440;-79
2023/06/09 00:20:04;;;;;;;9.60;4.93;;;;;;;12.13;100.00;100782.91;6195357;23;20464;-79
2023/06/09 00:22:31;;;;;;;13.90;7.70;;;;;;;12.05;100.00;100778.44;6219670;23;20095;-78
2023/06/09 00:24:57;;;;;;;15.60;8.57;;;;;;;12.05;100.00;100759.56;6194901;23;20001;-77
2023/06/09 00:27:24;;;;;;;13.65;8.13;;;;;;;12.07;100.00;100765.59;6194534;23;20086;-77
2023/06/09 00:29:50;;;;;;;12.60;7.00;;;;;;;12.07;100.00;100772.88;6194798;23;20444;-78
2023/06/09 00:32:16;;;;;;;7.53;5.90;;;;;;;12.03;100.00;100767.00;6194685;23;20020;-78
2023/06/09 00:34:43;;;;;;;7.97;7.20;;;;;;;12.01;100.00;100765.50;6194441;23;20016;-78
2023/06/09 00:37:09;;;;;;;12.98;6.35;;;;;;;11.90;100.00;100761.41;6194552;23;20004;-78
2023/06/09 00:39:35;;;;;;;9.65;5.57;;;;;;;11.81;100.00;100766.00;6196855;23;20004;-77
2023/06/09 00:42:00;;;;;;;10.68;7.63;;;;;;;11.77;100.00;100767.38;6196669;23;20070;-76
2023/06/09 00:44:26;;;;;;;8.45;6.65;;;;;;;11.72;100.00;100763.56;6196664;23;20421;-79
2023/06/09 00:46:52;;;;;;;12.02;7.45;;;;;;;11.77;100.00;100766.56;6196600;23;20020;-80
2023/06/09 00:49:18;;;;;;;8.82;5.53;;;;;;;11.72;100.00;100761.72;6196571;23;20340;-77
2023/06/09 00:51:45;;;;;;;9.68;6.35;;;;;;;11.71;100.00;100773.53;6196506;23;20012;-79
2023/06/09 00:54:12;;;;;;;8.18;6.22;;;;;;;11.63;100.00;100752.06;6196475;23;20344;-78
2023/06/09 00:56:39;;;;;;;11.35;7.00;;;;;;;11.71;100.00;100770.81;6196822;23;20314;-78
2023/06/09 00:59:07;;;;;;;12.50;8.02;;;;;;;11.73;100.00;100776.03;6196853;23;20008;-77
2023/06/09 01:01:33;;;;;;;11.68;7.45;;;;;;;11.75;100.00;100768.59;6196228;23;20340;-78
2023/06/09 01:03:59;;;;;;;5.80;3.75;;;;;;;11.72;100.00;100771.66;6196444;23;20004;-78
2023/06/09 01:06:38;;;;;;;17.33;8.95;;;;;;;11.72;100.00;100763.56;6221524;23;20032;-77
2023/06/09 01:09:20;;;;;;;15.45;7.45;;;;;;;11.69;100.00;100761.25;6221414;23;20004;-78
2023/06/09 01:12:05;;;;;;;13.60;8.73;;;;;;;11.67;100.00;100769.53;6221338;23;20337;-78
2023/06/09 01:14:48;;;;;;;11.32;5.72;;;;;;;11.60;100.00;100755.13;6220965;23;20008;-78
2023/06/09 01:17:16;;;;;;;;;;;;;;;11.62;100.00;100758.47;6196731;23;20012;-79
2023/06/09 01:19:45;;;;;;;12.95;7.45;;;;;;;11.60;100.00;100761.34;6196644;23;20235;-80
2023/06/09 01:22:18;;;;;;;9.77;6.97;;;;;;;11.62;100.00;100762.00;6221407;23;20080;-77
2023/06/09 01:24:53;;;;;;;11.82;6.85;;;;;;;11.68;100.00;100751.50;6221195;23;20344;-78
2023/06/09 01:27:21;;;;;;;9.23;6.28;;;;;;;11.71;100.00;100751.97;6221185;23;20011;-78
2023/06/09 01:29:48;;;;;;;13.23;7.85;;;;;;;11.68;100.00;100749.66;6196555;23;20012;-77
2023/06/09 01:32:16;;;;;;;8.07;6.28;;;;;;;11.63;100.00;100742.09;6246669;23;20000;-77
2023/06/09 01:34:42;;;;;;;7.95;5.45;;;;;;;11.68;100.00;100756.91;6196176;23;20433;-81
2023/06/09 01:37:09;;;;;;;8.85;6.50;;;;;;;11.74;100.00;100762.38;6221243;23;20004;-78
2023/06/09 01:39:37;;;;;;;10.23;6.47;;;;;;;11.77;100.00;100756.63;6196182;23;20012;-78
2023/06/09 01:42:02;;;;;;;11.38;8.70;;;;;;;11.70;100.00;100754.88;6196049;23;20015;-77
2023/06/09 01:44:28;;;;;;;11.18;8.32;;;;;;;11.65;100.00;100752.72;6195910;23;20008;-77
2023/06/09 01:46:54;;;;;;;12.18;8.10;;;;;;;11.55;100.00;100747.56;6195943;23;20031;-78
2023/06/09 01:49:24;;;;;;;12.88;9.73;;;;;;;11.56;100.00;100753.78;6195340;23;20095;-76
2023/06/09 01:52:01;;;;;;;11.20;6.65;;;;;;;11.66;100.00;100749.81;6195952;23;20000;-78
2023/06/09 01:54:34;;;;;;;13.52;8.02;;;;;;;11.64;100.00;100733.03;6245984;23;20012;-77
2023/06/09 01:57:25;;;;;;;12.05;8.75;;;;;;;11.71;100.00;100743.88;6196076;23;20086;-77
2023/06/09 01:59:54;;;;;;;9.32;6.45;;;;;;;11.71;100.00;100743.06;6220628;23;20028;-77
2023/06/09 02:02:20;;;;;;;11.43;6.85;;;;;;;11.67;100.00;100739.91;6221150;23;20008;-79
2023/06/09 02:04:48;;;;;;;13.00;7.97;;;;;;;11.67;100.00;100737.22;6170967;23;20000;-79
2023/06/09 02:07:16;;;;;;;10.23;8.13;;;;;;;11.63;100.00;100747.50;6170833;23;20429;-78
2023/06/09 02:09:45;;;;;;;9.65;6.57;;;;;;;11.64;100.00;100733.03;6171399;23;20038;-77
2023/06/09 02:12:11;;;;;;;9.00;6.38;;;;;;;11.62;100.00;100742.31;6170888;23;20012;-78
2023/06/09 02:14:39;;;;;;;10.63;6.75;;;;;;;11.51;100.00;100729.25;6170652;23;20103;-77
2023/06/09 02:17:08;;;;;;;14.88;7.40;;;;;;;11.52;100.00;100739.03;6196626;23;20004;-77
2023/06/09 02:19:37;;;;;;;8.88;5.38;;;;;;;11.48;100.00;100740.41;6170955;23;20039;-81
2023/06/09 02:22:03;;;;;;;12.02;7.82;;;;;;;11.44;100.00;100729.19;6194607;23;20019;-78
2023/06/09 02:24:31;;;;;;;15.48;8.60;;;;;;;11.45;100.00;100734.34;6170860;23;20004;-81
2023/06/09 02:26:57;;;;;;;8.07;5.80;;;;;;;11.36;100.00;100730.06;6171153;23;20007;-78
2023/06/09 02:29:24;;;;;;;16.05;7.95;;;;;;;11.30;100.00;100728.13;6170747;23;20008;-78
2023/06/09 02:31:50;;;;;;;14.00;8.77;;;;;;;11.23;100.00;100727.16;6170856;23;20008;-78
2023/06/09 02:34:16;;;;;;;10.35;7.18;;;;;;;11.32;100.00;100722.53;6170679;23;20093;-78
2023/06/09 02:36:42;;;;;;;13.85;7.95;;;;;;;11.35;100.00;100730.25;6170671;23;20395;-77
2023/06/09 02:39:09;;;;;;;10.45;7.70;;;;;;;11.27;100.00;100712.31;6170644;23;20019;-77
2023/06/09 02:41:34;;;;;;;18.35;8.05;;;;;;;11.35;100.00;100717.66;6170684;23;20031;-77
2023/06/09 02:44:02;;;;;;;14.82;9.05;;;;;;;11.36;100.00;100723.88;6170658;23;20380;-77
2023/06/09 02:46:29;;;;;;;10.25;6.90;;;;;;;11.28;100.00;100722.06;6170924;23;20375;-78
2023/06/09 02:48:55;;;;;;;15.02;8.25;;;;;;;11.24;100.00;100728.81;6170613;23;20016;-78
2023/06/09 02:51:21;;;;;;;13.88;8.00;;;;;;;11.22;100.00;100725.50;6170556;23;20135;-79
2023/06/09 02:53:46;;;;;;;15.77;9.73;;;;;;;11.16;100.00;100726.19;6195208;23;20039;-79
2023/06/09 02:56:13;;;;;;;10.93;7.93;;;;;;;11.08;100.00;100713.66;6195240;23;20016;-78
2023/06/09 02:58:39;;;;;;;12.68;7.78;;;;;;;11.02;100.00;100718.94;6170868;23;20012;-77
2023/06/09 03:01:06;;;;;;;8.27;5.78;;;;;;;11.02;100.00;100714.38;6183133;23;20344;-77
2023/06/09 03:03:34;;;;;;;9.95;6.65;;;;;;;11.06;100.00;100704.94;6195496;23;20016;-78
2023/06/09 03:06:00;;;;;;;13.05;7.47;;;;;;;11.06;100.00;100706.78;6195652;23;20015;-78
2023/06/09 03:08:26;;;;;;;17.08;7.97;;;;;;;11.03;100.00;100704.44;6195256;23;20046;-79
2023/06/09 03:10:53;;;;;;;14.20;8.38;;;;;;;10.91;100.00;100693.28;6195165;23;20047;-78
2023/06/09 03:13:18;;;;;;;11.32;6.50;;;;;;;10.84;100.00;100701.22;6195308;23;20057;-78
2023/06/09 03:15:44;;;;;;;14.10;8.15;;;;;;;10.78;100.00;100701.94;6219830;23;20008;-78
2023/06/09 03:18:10;;;;;;;13.40;7.63;;;;;;;10.72;100.00;100697.28;6195162;23;20090;-77
2023/06/09 03:20:36;;;;;;;17.02;8.00;;;;;;;10.72;100.00;100702.66;6220266;23;20000;-78
2023/06/09 03:23:02;;;;;;;16.85;9.93;;;;;;;10.71;100.00;100695.59;6195118;23;20019;-77
2023/06/09 03:25:30;;;;;;;15.30;9.40;;;;;;;10.65;100.00;100686.38;6194978;23;20391;-78
2023/06/09 03:27:56;;;;;;;8.43;5.93;;;;;;;10.70;100.00;100685.88;6195594;23;20012;-81
2023/06/09 03:30:22;;;;;;;14.52;7.45;;;;;;;10.66;100.00;100688.06;6195049;23;20400;-79
2023/06/09 03:32:48;;;;;;;11.90;7.43;;;;;;;10.58;100.00;100690.78;6194953;23;20020;-80
2023/06/09 03:35:15;;;;;;;13.07;8.50;;;;;;;10.53;100.00;100687.81;6194941;23;20012;-79
2023/06/09 03:37:41;;;;;;;13.68;9.20;;;;;;;10.56;100.00;100682.09;6195209;23;20008;-78
2023/06/09 03:40:07;;;;;;;8.68;6.55;;;;;;;10.56;100.00;100679.41;6194901;23;20646;-78
2023/06/09 03:42:33;;;;;;;13.15;7.47;;;;;;;10.57;100.00;100679.22;6195179;23;20016;-79
2023/06/09 03:44:58;;;;;;;13.40;7.70;;;;;;;10.56;100.00;100677.53;6194907;23;20448;-78
2023/06/09 03:47:29;;;;;;;11.80;9.32;;;;;;;10.63;100.00;100691.09;6220044;23;20008;-77
2023/06/09 03:49:55;;;;;;;12.63;7.50;;;;;;;10.63;100.00;100682.19;6195210;23;20008;-79
2023/06/09 03:52:21;;;;;;;10.73;6.20;;;;;;;10.66;100.00;100684.53;6194787;23;20004;-77
2023/06/09 03:54:48;;;;;;;11.95;8.15;;;;;;;10.65;100.00;100680.19;6194434;23;20012;-79
2023/06/09 03:57:14;;;;;;;14.52;8.80;;;;;;;10.67;100.00;100672.78;6194994;23;20099;-78
2023/06/09 03:59:40;;;;;;;10.48;6.75;;;;;;;10.70;100.00;100678.63;6194710;23;20043;-80
2023/06/09 04:02:06;;;;;;;16.83;9.32;;;;;;;10.74;100.00;100685.34;6169966;23;20008;-77
2023/06/09 04:04:31;;;;;;;18.58;8.57;;;;;;;10.64;100.00;100682.03;6169921;23;20008;-77
2023/06/09 04:06:58;;;;;;;12.70;8.10;;;;;;;10.55;100.00;100681.22;6169999;23;20090;-77
2023/06/09 04:09:26;;;;;;;17.30;9.63;;;;;;;10.55;100.00;100678.53;6170118;23;20008;-79
2023/06/09 04:11:52;;;;;;;14.68;8.32;;;;;;;10.63;100.00;100676.81;6169463;23;20511;-78
2023/06/09 04:14:18;;;;;;;13.32;8.35;;;;;;;10.63;100.00;100682.19;6169540;23;20004;-79
2023/06/09 04:16:45;;;;;;;11.55;8.85;;;;;;;10.63;100.00;100677.66;6169668;23;20019;-76
2023/06/09 04:19:11;;;;;;;11.05;7.05;;;;;;;10.68;100.00;100677.97;6169999;23;20103;-77
2023/06/09 04:21:42;;;;;;;10.02;6.63;;;;;;;10.72;100.00;100676.59;6169768;23;20117;-78
2023/06/09 04:24:08;;;;;;;15.02;8.68;;;;;;;10.77;100.00;100673.38;6170217;23;20015;-78
2023/06/09 04:26:38;;;;;;;13.15;7.82;;;;;;;10.81;100.00;100682.75;6219909;23;20333;-78
2023/06/09 04:29:04;;;;;;;6.03;4.43;;;;;;;10.76;100.00;100687.81;6170657;23;20005;-78
2023/06/09 04:31:33;;;;;;;15.88;8.02;;;;;;;10.76;100.00;100677.06;6169563;23;20014;-77
2023/06/09 04:34:12;;;;;;;16.77;8.02;;;;;;;10.77;100.00;100674.22;6170592;23;20314;-78
2023/06/09 04:36:39;;;;;;;14.75;8.90;;;;;;;10.83;100.00;100675.34;6171762;23;20000;-77
2023/06/09 04:39:07;;;;;;;11.90;7.43;;;;;;;10.90;100.00;100683.53;6169626;23;20012;-79
2023/06/09 04:41:33;;;;;;;6.47;4.47;;;;;;;10.96;100.00;100683.66;6169837;23;20489;-78
2023/06/09 04:44:03;;;;;;;14.85;8.32;;;;;;;11.01;100.00;100677.75;6169606;23;20425;-78
2023/06/09 04:46:37;;;;;;;14.73;9.43;;;;;;;11.07;100.00;100682.38;6220728;23;20011;-79
2023/06/09 04:49:09;;;;;;;15.48;9.05;;;;;;;11.12;100.00;100680.00;6195544;23;20011;-80
2023/06/09 04:51:41;;;;;;;16.65;8.63;;;;;;;11.29;100.00;100682.53;6170155;23;20402;-78
2023/06/09 04:54:09;;;;;;;8.43;6.18;;;;;;;11.48;100.00;100670.41;6219868;23;20031;-78
2023/06/09 04:56:36;;;;;;;12.75;6.20;;;;;;;11.97;100.00;100681.50;6194509;23;20393;-78
2023/06/09 04:59:04;;;;;;;15.90;9.27;;;;;;;12.05;100.00;100680.56;6219466;23;20008;-76
2023/06/09 05:01:29;;;;;;;12.13;8.52;;;;;;;12.12;100.00;100677.94;6211772;23;20004;-78
2023/06/09 05:03:56;;;;;;;13.55;7.60;;;;;;;12.22;100.00;100676.63;6194483;23;20016;-78
2023/06/09 05:06:21;;;;;;;12.50;7.07;;;;;;;12.61;100.00;100661.13;6194407;23;20137;-85
2023/06/09 05:08:48;;;;;;;11.07;7.30;;;;;;;13.09;100.00;100680.25;6194403;23;20393;-79
2023/06/09 05:11:14;;;;;;;8.63;6.60;;;;;;;13.60;100.00;100672.81;6244447;23;20028;-80
2023/06/09 05:13:40;;;;;;;11.48;7.20;;;;;;;13.85;100.00;100667.75;6194346;23;20015;-79
2023/06/09 05:16:06;;;;;;;14.27;9.23;;;;;;;14.49;100.00;100671.97;6194318;23;20008;-82
2023/06/09 05:18:32;;;;;;;11.82;7.70;;;;;;;14.92;99.92;100671.69;6194725;23;20012;-80
2023/06/09 05:20:58;;;;;;;9.93;6.05;;;;;;;15.21;95.71;100677.72;6194388;23;20463;-78
2023/06/09 05:23:23;;;;;;;11.45;7.53;;;;;;;15.46;95.23;100682.53;6194437;23;20016;-79
2023/06/09 05:25:49;;;;;;;11.95;7.38;;;;;;;15.69;93.30;100682.94;6196270;23;20000;-80
2023/06/09 05:28:15;;;;;;;12.95;8.13;;;;;;;15.76;91.20;100693.75;6196264;23;20012;-78
2023/06/09 05:30:41;;;;;;;8.63;6.15;;;;;;;15.61;91.67;100694.81;6221058;23;20012;-78
2023/06/09 05:33:07;;;;;;;11.52;6.20;;;;;;;16.02;90.81;100696.41;6196437;23;20015;-80
2023/06/09 05:35:33;;;;;;;6.72;5.03;;;;;;;16.42;86.35;100698.97;6195885;23;20425;-80
2023/06/09 05:37:58;;;;;;;10.43;6.45;;;;;;;16.66;86.85;100691.94;6196026;23;20015;-80
2023/06/09 05:40:24;;;;;;;14.55;7.63;;;;;;;16.83;84.20;100699.59;6196195;23;20391;-78
2023/06/09 05:42:50;;;;;;;9.10;6.38;;;;;;;17.14;79.30;100685.19;6221013;23;20421;-78
2023/06/09 05:45:16;;;;;;;10.93;7.15;;;;;;;17.32;79.80;100698.00;6196105;23;20008;-79
2023/06/09 05:47:42;;;;;;;5.45;4.20;;;;;;;17.63;77.24;100688.13;6220943;23;20083;-80
2023/06/09 05:50:08;;;;;;;10.75;6.35;;;;;;;17.69;77.42;100689.94;6195991;23;20051;-78
2023/06/09 05:52:34;;;;;;;8.80;6.75;;;;;;;17.79;74.65;100690.28;6195909;23;20150;-82
2023/06/09 05:55:00;;;;;;;7.47;4.97;;;;;;;17.94;73.43;100690.75;6195891;23;20429;-79
2023/06/09 05:57:29;;;;;;;9.07;7.28;;;;;;;18.06;72.77;100690.00;6195048;23;20012;-80
2023/06/09 05:59:57;;;;;;;11.93;6.85;;;;;;;18.12;71.83;100681.75;6221818;23;20417;-78
2023/06/09 06:02:23;;;;;;;8.88;5.80;;;;;;;18.38;72.50;100691.47;6195851;23;20069;-79
2023/06/09 06:04:51;;;;;;;11.18;7.38;;;;;;;18.48;70.69;100692.84;6171024;23;20004;-79
2023/06/09 06:07:19;;;;;;;15.60;6.97;;;;;;;18.65;72.07;100681.06;6171002;23;20377;-79
2023/06/09 06:09:44;;;;;;;7.82;4.80;;;;;;;18.96;67.42;100686.53;6170814;23;20032;-79
2023/06/09 06:12:10;;;;;;;7.53;4.75;;;;;;;19.26;68.62;100684.56;6170841;23;20015;-78
2023/06/09 06:14:36;;;;;;;9.25;6.05;;;;;;;19.57;65.73;100693.47;6170491;23;20047;-80
2023/06/09 06:17:02;;;;;;;6.47;4.93;;;;;;;19.85;61.92;100692.81;6170907;23;20008;-78
2023/06/09 06:19:27;;;;;;;9.02;5.15;;;;;;;19.99;63.13;100693.38;6170903;23;20090;-79
2023/06/09 06:21:53;;;;;;;11.35;6.93;;;;;;;20.17;61.93;100690.47;6170577;23;20015;-79
2023/06/09 06:24:19;;;;;;;7.97;6.25;;;;;;;20.40;57.64;100700.53;6170753;23;20008;-77
2023/06/09 06:26:45;;;;;;;8.20;5.68;;;;;;;20.69;59.29;100694.25;6170773;23;20470;-79
2023/06/09 06:29:10;;;;;;;8.10;5.80;;;;;;;20.96;56.64;100691.75;6170758;23;20106;-79
2023/06/09 06:31:39;;;;;;;9.73;6.10;;;;;;;21.12;57.99;100693.69;6170567;23;20007;-79
2023/06/09 06:34:04;;;;;;;7.22;5.78;;;;;;;21.27;54.38;100696.66;6170499;23;20007;-80
2023/06/09 06:36:30;;;;;;;7.07;4.65;;;;;;;21.18;54.52;100697.31;6170070;23;20073;-79
2023/06/09 06:38:56;;;;;;;11.60;5.68;;;;;;;21.28;55.56;100692.03;6170721;23;20058;-79
2023/06/09 06:41:22;;;;;;;7.78;6.30;;;;;;;21.42;54.96;100698.84;6170516;23;20043;-79
2023/06/09 06:43:49;;;;;;;8.63;5.15;;;;;;;21.45;54.31;100697.50;6170532;23;20088;-80
2023/06/09 06:46:18;;;;;;;7.40;5.50;;;;;;;21.42;53.44;100687.91;6170825;23;20008;-79
2023/06/09 06:48:44;;;;;;;7.72;5.22;;;;;;;21.68;54.24;100686.38;6170316;23;20484;-79
2023/06/09 06:51:10;;;;;;;7.47;4.82;;;;;;;21.81;52.22;100677.00;6170328;23;20050;-79
2023/06/09 06:53:36;;;;;;;9.35;5.47;;;;;;;22.08;53.48;100682.53;6170432;23;20004;-79
2023/06/09 06:56:02;;;;;;;9.73;6.97;;;;;;;22.24;51.24;100680.88;6195394;23;19996;-78
2023/06/09 06:58:28;;;;;;;7.95;5.60;;;;;;;22.35;50.78;100673.59;6170418;23;20103;-79
2023/06/09 07:00:55;;;;;;;7.68;5.35;;;;;;;22.62;51.42;100684.56;6180847;23;20095;-79
2023/06/09 07:03:23;;;;;;;7.30;5.45;;;;;;;22.85;48.68;100671.66;6219934;23;20027;-79
2023/06/09 07:05:50;;;;;;;8.93;5.50;;;;;;;22.98;49.45;100668.53;6195766;23;20457;-79
2023/06/09 07:08:17;;;;;;;5.57;4.20;;;;;;;23.29;48.04;100669.59;6195733;23;20023;-79
2023/06/09 07:10:42;;;;;;;8.50;5.32;;;;;;;23.40;47.81;100685.06;6195689;23;20460;-78
2023/06/09 07:13:08;;;;;;;6.80;5.65;;;;;;;23.52;47.56;100681.28;6195117;23;20011;-79
2023/06/09 07:15:36;;;;;;;7.00;4.85;;;;;;;24.29;48.26;100682.53;6220263;23;20004;-79
2023/06/09 07:18:05;;;;;;;8.02;5.47;;;;;;;24.76;43.75;100690.69;6245203;23;20099;-78
2023/06/09 07:20:31;;;;;;;7.38;5.63;;;;;;;24.64;43.48;100681.88;6195576;23;20008;-78
2023/06/09 07:22:57;;;;;;;5.88;4.78;;;;;;;24.50;43.39;100684.28;6194862;23;20015;-78
2023/06/09 07:25:23;;;;;;;7.20;5.10;;;;;;;24.41;44.77;100671.34;6194977;23;20310;-79
2023/06/09 07:27:49;;;;;;;6.90;4.93;;;;;;;23.36;45.23;100681.16;6195010;23;20012;-78
2023/06/09 07:30:15;;;;;;;8.82;5.55;;;;;;;20.94;51.05;100672.84;6194918;23;20044;-80
2023/06/09 07:32:41;;;;;;;6.97;4.88;;;;;;;19.49;55.96;100672.03;6195057;23;20004;-77
2023/06/09 07:35:07;;;;;;;6.63;5.15;;;;;;;18.62;60.76;100669.81;6194736;23;20010;-77
2023/06/09 07:37:36;;;;;;;6.32;3.70;;;;;;;18.05;65.58;100659.25;6194969;23;20043;-78
2023/06/09 07:40:04;;;;;;;7.53;4.80;;;;;;;17.96;67.33;100658.69;6195793;23;20333;-80
2023/06/09 07:42:29;;;;;;;8.20;5.18;;;;;;;18.54;65.79;100659.25;6195259;23;20095;-77
2023/06/09 07:44:55;;;;;;;8.00;4.50;;;;;;;19.65;62.47;100659.56;6244872;23;20032;-78
2023/06/09 07:47:21;;;;;;;9.20;4.82;;;;;;;21.01;56.20;100654.41;6194458;23;20015;-78
2023/06/09 07:49:46;;;;;;;4.95;3.22;;;;;;;20.56;56.21;100663.44;6194819;23;20368;-79
2023/06/09 07:52:12;;;;;;;7.90;4.43;;;;;;;20.38;58.01;100656.22;6194673;23;20012;-78
2023/06/09 07:54:38;;;;;;;8.90;4.65;;;;;;;19.87;59.18;100660.66;6194635;23;20004;-78
2023/06/09 07:57:04;;;;;;;5.35;3.70;;;;;;;18.98;61.92;100663.44;6194825;23;20004;-78
2023/06/09 07:59:29;;;;;;;6.63;4.22;;;;;;;18.27;65.92;100662.31;6220074;23;20012;-78
2023/06/09 08:01:56;;;;;;;7.85;4.82;;;;;;;17.88;69.57;100671.78;6197474;23;20020;-78
2023/06/09 08:04:21;;;;;;;5.78;4.65;;;;;;;18.45;68.46;100658.75;6196348;23;20008;-78
2023/06/09 08:06:47;;;;;;;8.35;4.30;;;;;;;18.59;65.93;100662.09;6194732;23;20004;-79
2023/06/09 08:09:13;;;;;;;10.57;5.35;;;;;;;18.51;67.75;100657.81;6194770;23;20012;-77
2023/06/09 08:11:39;;;;;;;10.98;4.82;;;;;;;19.45;65.95;100651.72;6194187;23;20336;-78
2023/06/09 08:14:06;;;;;;;5.50;3.33;;;;;;;22.26;57.13;100662.28;6192181;23;20038;-77
2023/06/09 08:16:32;;;;;;;8.50;3.60;;;;;;;23.75;47.75;100656.22;6219848;23;20008;-84
2023/06/09 08:18:58;;;;;;;9.20;4.57;;;;;;;22.67;50.70;100659.97;6193930;23;20034;-79
2023/06/09 08:21:26;;;;;;;6.53;4.05;;;;;;;22.14;51.95;100661.53;6219532;23;20012;-79
2023/06/09 08:23:52;;;;;;;8.35;5.13;;;;;;;23.84;50.15;100657.38;6194448;23;20502;-79
2023/06/09 08:26:18;;;;;;;6.88;5.15;;;;;;;25.47;46.22;100661.56;6194393;23;20004;-78
2023/06/09 08:28:43;;;;;;;8.90;4.90;;;;;;;26.65;42.95;100659.22;6194571;23;20015;-79
2023/06/09 08:31:09;;;;;;;5.93;4.70;;;;;;;26.98;42.09;100649.31;6194592;23;20098;-79
2023/06/09 08:33:35;;;;;;;6.80;4.57;;;;;;;27.55;39.44;100657.13;6194449;23;20098;-79
2023/06/09 08:36:03;;;;;;;6.25;3.78;;;;;;;27.76;39.75;100644.75;6219379;23;20079;-79
2023/06/09 08:38:35;;;;;;;6.30;3.85;;;;;;;27.39;39.40;100654.53;6219819;23;20436;-79
2023/06/09 08:41:08;;;;;;;7.17;4.93;;;;;;;27.61;41.04;100648.50;6194522;23;20311;-78
2023/06/09 08:43:33;;;;;;;7.70;5.10;;;;;;;27.82;39.44;100654.66;6219429;23;20012;-79
2023/06/09 08:46:01;;;;;;;7.00;5.40;;;;;;;26.35;41.39;100648.34;6194402;23;20123;-78
2023/06/09 08:48:28;;;;;;;10.25;5.22;;;;;;;27.00;41.42;100640.75;6194749;23;20011;-80
2023/06/09 08:50:55;;;;;;;8.93;4.07;;;;;;;28.52;38.23;100639.38;6194695;23;20015;-79
2023/06/09 08:53:21;;;;;;;5.53;4.55;;;;;;;29.11;37.42;100639.88;6194517;23;20543;-79
2023/06/09 08:55:47;;;;;;;7.60;4.85;;;;;;;29.07;36.52;100638.84;6194350;23;20029;-79
2023/06/09 08:58:14;;;;;;;7.05;5.22;;;;;;;29.25;35.86;100643.50;6219492;23;20020;-78
2023/06/09 09:00:40;;;;;;;7.28;4.95;;;;;;;28.02;37.60;100642.53;6196410;23;20016;-79
2023/06/09 09:03:06;;;;;;;8.38;5.80;;;;;;;28.62;37.62;100639.25;6196447;23;20038;-78
2023/06/09 09:05:32;;;;;;;8.40;4.93;;;;;;;29.25;36.74;100645.44;6221149;23;20015;-77
2023/06/09 09:07:58;;;;;;;7.03;4.40;;;;;;;29.74;36.22;100642.03;6196446;23;20310;-78
2023/06/09 09:10:23;;;;;;;7.38;4.70;;;;;;;29.05;34.96;100635.53;6196385;23;20384;-78
2023/06/09 09:12:51;;;;;;;9.95;5.53;;;;;;;28.41;38.70;100635.09;6196268;23;20028;-79
2023/06/09 09:15:18;;;;;;;8.55;5.75;;;;;;;28.57;35.37;100624.66;6195875;23;20034;-78
2023/06/09 09:17:45;;;;;;;8.27;4.90;;;;;;;29.34;36.42;100627.00;6196382;23;20019;-78
2023/06/09 09:20:11;;;;;;;6.97;5.10;;;;;;;28.91;36.65;100614.16;6221504;23;19996;-78
2023/06/09 09:22:50;;;;;;;6.45;4.97;;;;;;;28.20;37.02;100621.56;6196230;23;20066;-77
2023/06/09 09:25:27;;;;;;;7.00;4.82;;;;;;;26.79;38.92;100622.72;6245911;23;20428;-76
2023/06/09 09:28:08;;;;;;;6.60;4.80;;;;;;;26.51;40.45;100627.84;6195873;23;20004;-80
2023/06/09 09:30:49;;;;;;;5.33;4.37;;;;;;;27.12;39.82;100612.78;6220689;23;20046;-77
2023/06/09 09:33:26;;;;;;;7.95;4.38;;;;;;;27.56;39.07;100631.97;6196088;23;20483;-77
2023/06/09 09:35:57;;;;;;;9.00;6.85;;;;;;;27.39;39.02;100621.41;6196391;23;20026;-76
2023/06/09 09:38:25;;;;;;;8.50;5.85;;;;;;;26.63;41.24;100617.31;6195864;23;20016;-77
2023/06/09 09:40:52;;;;;;;9.48;6.57;;;;;;;26.24;40.78;100600.72;6195850;23;20102;-77
2023/06/09 09:43:19;;;;;;;9.65;5.88;;;;;;;25.62;42.31;100617.50;6195866;23;20015;-76
2023/06/09 09:45:47;;;;;;;9.77;5.95;;;;;;;25.04;43.64;100624.44;6195568;23;20004;-77
2023/06/09 09:48:15;;;;;;;6.65;5.55;;;;;;;24.56;43.28;100608.19;6195826;23;20011;-77
2023/06/09 09:50:44;;;;;;;6.55;5.85;;;;;;;24.18;45.23;100614.91;6195749;23;20023;-76
2023/06/09 09:53:10;;;;;;;8.38;5.28;;;;;;;24.48;46.11;100620.53;6221014;23;20032;-76
2023/06/09 09:55:44;;;;;;;9.98;5.57;;;;;;;25.14;45.17;100617.00;6195721;23;20086;-75
2023/06/09 09:58:11;;;;;;;5.70;4.22;;;;;;;25.25;44.26;100620.59;6195932;23;20008;-76
2023/06/09 10:00:42;;;;;;;8.15;5.07;;;;;;;24.85;45.00;100607.63;6170813;23;20023;-77
2023/06/09 10:03:14;;;;;;;9.27;5.43;;;;;;;24.67;45.28;100603.53;6172005;23;20076;-76
2023/06/09 10:05:43;;;;;;;8.95;5.03;;;;;;;25.29;44.82;100615.34;6220799;23;20413;-77
2023/06/09 10:08:10;;;;;;;11.85;6.13;;;;;;;25.94;43.38;100618.25;6245830;23;20004;-75
2023/06/09 10:10:36;;;;;;;10.30;5.25;;;;;;;26.78;41.37;100618.31;6195359;23;20012;-76
2023/06/09 10:13:03;;;;;;;11.90;4.00;;;;;;;27.20;40.33;100612.19;6195919;23;20012;-75
2023/06/09 10:15:30;;;;;;;7.07;4.63;;;;;;;26.43;41.62;100615.47;6195944;23;20007;-75
2023/06/09 10:17:58;;;;;;;9.35;6.43;;;;;;;26.36;41.53;100623.25;6221007;23;19996;-76
2023/06/09 10:20:24;;;;;;;8.85;5.57;;;;;;;26.44;41.47;100625.41;6220984;23;20008;-76
2023/06/09 10:22:51;;;;;;;12.75;5.85;;;;;;;26.90;41.02;100607.75;6195530;23;20008;-75
2023/06/09 10:25:21;;;;;;;6.90;4.68;;;;;;;27.37;39.60;100603.47;6195526;23;20008;-75
2023/06/09 10:27:49;;;;;;;12.57;6.20;;;;;;;26.64;41.33;100585.88;6170839;23;20495;-79
2023/06/09 10:30:15;;;;;;;10.13;5.30;;;;;;;25.95;42.82;100611.63;6195464;23;20004;-75
2023/06/09 10:32:47;;;;;;;11.55;5.75;;;;;;;25.39;43.87;100618.91;6195433;23;20012;-76
2023/06/09 10:35:24;;;;;;;7.00;4.97;;;;;;;25.22;43.55;100615.66;6195768;23;20036;-77
2023/06/09 10:37:50;;;;;;;14.85;6.90;;;;;;;24.49;46.60;100619.44;6220342;23;20004;-75
2023/06/09 10:40:30;;;;;;;12.75;7.15;;;;;;;23.99;47.17;100622.81;6220522;23;20336;-75
2023/06/09 10:42:56;;;;;;;9.95;5.53;;;;;;;23.89;48.55;100613.44;6195282;23;20429;-76
2023/06/09 10:45:22;;;;;;;11.90;6.90;;;;;;;23.66;48.18;100611.13;6220493;23;20011;-74
2023/06/09 10:47:49;;;;;;;7.45;5.68;;;;;;;23.58;48.94;100617.13;6170552;23;20008;-76
2023/06/09 10:50:26;;;;;;;5.90;5.32;;;;;;;23.52;48.84;100618.97;6195292;23;20070;-75
2023/06/09 10:52:59;;;;;;;9.45;5.50;;;;;;;23.32;49.72;100616.13;6245386;23;20004;-75
2023/06/09 10:55:30;;;;;;;7.53;6.10;;;;;;;23.18;49.78;100613.84;6220074;23;20000;-76
2023/06/09 10:57:57;;;;;;;8.82;6.05;;;;;;;23.13;50.02;100611.06;6170985;23;20341;-77
2023/06/09 11:00:23;;;;;;;8.95;5.10;;;;;;;23.10;51.44;100611.59;6195455;23;20433;-75
2023/06/09 11:03:28;;;;;;;8.85;6.60;;;;;;;23.11;51.50;100615.97;6195413;23;20008;-76
2023/06/09 11:06:03;;;;;;;8.77;5.40;;;;;;;23.14;52.61;100589.94;6219786;23;20042;-77
2023/06/09 11:09:01;;;;;;;10.18;5.93;;;;;;;23.22;52.01;100601.25;6195131;23;20015;-75
2023/06/09 11:11:50;;;;;;;8.88;5.70;;;;;;;23.33;52.58;100599.38;6195102;23;20000;-75
2023/06/09 11:14:43;;;;;;;10.30;6.45;;;;;;;23.77;50.41;100607.34;6195220;23;20013;-76
2023/06/09 11:17:37;;;;;;;7.32;5.60;;;;;;;24.12;50.23;100608.59;6220017;23;20046;-76
2023/06/09 11:20:09;;;;;;;8.25;6.50;;;;;;;25.51;47.25;100607.63;6219829;23;20008;-76